Time;durP1;ratioP1;P1;durP2;ratioP2;P2;SDS_P1;SDS_P2;PMS_P1;PMS_P2;Temp;Humidity;BMP_temperature;BMP_pressure;BME280_temperature;BME280_humidity;BME280_pressure;Samples;Min_cycle;Max_cycle;Signal;HPM_P1;HPM_P2
2022/09/08 00:00:18;;;;;;;9.63;4.85;;;22.80;69.30;;;;;;6125441;28;80308;-59
2022/09/08 00:03:19;;;;;;;11.70;5.32;;;22.80;68.90;;;;;;6125984;28;80736;-60
2022/09/08 00:06:20;;;;;;;10.52;4.95;;;22.80;69.50;;;;;;6114525;28;84946;-60
2022/09/08 00:09:20;;;;;;;6.43;3.90;;;22.80;69.70;;;;;;6125977;28;80924;-60
2022/09/08 00:12:21;;;;;;;10.18;5.13;;;22.80;69.70;;;;;;6126374;28;80344;-59
2022/09/08 00:15:21;;;;;;;7.47;4.30;;;22.80;69.40;;;;;;6126691;28;81141;-59
2022/09/08 00:18:23;;;;;;;10.18;5.10;;;22.80;69.50;;;;;;6126080;28;82413;-59
2022/09/08 00:21:24;;;;;;;14.35;5.15;;;22.80;69.50;;;;;;6112714;28;81839;-59
2022/09/08 00:24:25;;;;;;;10.40;4.80;;;22.80;69.80;;;;;;6113105;28;80546;-59
2022/09/08 00:27:25;;;;;;;6.57;4.15;;;22.80;69.40;;;;;;6115337;28;80367;-60
2022/09/08 00:30:26;;;;;;;8.82;5.10;;;22.80;69.50;;;;;;6124369;28;83535;-59
2022/09/08 00:33:26;;;;;;;8.50;4.90;;;22.80;69.70;;;;;;6125319;28;80332;-60
2022/09/08 00:36:27;;;;;;;7.78;4.18;;;22.80;69.60;;;;;;6124720;28;80382;-59
2022/09/08 00:39:27;;;;;;;7.85;4.10;;;22.80;69.60;;;;;;6124690;28;86994;-59
2022/09/08 00:42:28;;;;;;;7.47;4.07;;;22.80;69.60;;;;;;6126811;28;80862;-60
2022/09/08 00:45:28;;;;;;;6.75;3.95;;;22.80;69.20;;;;;;6123910;28;87310;-60
2022/09/08 00:48:30;;;;;;;8.32;4.25;;;22.80;69.50;;;;;;6128341;28;80271;-59
2022/09/08 00:51:30;;;;;;;10.45;4.13;;;22.80;69.60;;;;;;6117912;28;80329;-59
2022/09/08 00:54:31;;;;;;;9.90;5.15;;;22.80;69.90;;;;;;6124889;28;83162;-59
2022/09/08 00:57:31;;;;;;;9.52;4.68;;;22.80;69.60;;;;;;6124735;28;80412;-59
2022/09/08 01:00:32;;;;;;;6.18;4.05;;;22.80;69.80;;;;;;6121248;28;84892;-59
2022/09/08 01:03:32;;;;;;;9.23;4.97;;;22.80;69.10;;;;;;6116271;28;80220;-59
2022/09/08 01:13:12;;;;;;;8.88;5.47;;;22.70;69.60;;;;;;6119605;28;80525;-58
2022/09/08 01:16:12;;;;;;;8.48;4.28;;;22.80;69.40;;;;;;6115882;28;83222;-59
2022/09/08 01:19:13;;;;;;;6.90;4.30;;;22.80;69.40;;;;;;6097422;28;80636;-59
2022/09/08 01:22:13;;;;;;;7.63;4.03;;;22.80;69.40;;;;;;6104793;28;81308;-58
2022/09/08 01:25:14;;;;;;;5.85;3.15;;;22.80;69.50;;;;;;6117850;28;87053;-59
2022/09/08 01:28:15;;;;;;;8.57;4.95;;;22.70;69.50;;;;;;6106963;28;80303;-59
2022/09/08 01:31:15;;;;;;;11.70;5.10;;;22.70;69.30;;;;;;6119337;28;80856;-60
2022/09/08 01:34:16;;;;;;;7.05;4.03;;;22.80;69.40;;;;;;6105507;28;80385;-59
2022/09/08 01:37:16;;;;;;;7.75;4.15;;;22.70;69.50;;;;;;6106384;28;80505;-60
2022/09/08 01:40:16;;;;;;;7.10;4.07;;;22.70;69.20;;;;;;6142025;28;86978;-59
2022/09/08 01:43:17;;;;;;;7.00;4.20;;;22.70;69.30;;;;;;6133501;28;80243;-60
2022/09/08 01:46:18;;;;;;;7.30;3.85;;;22.70;69.80;;;;;;6130192;28;80375;-59
2022/09/08 01:49:18;;;;;;;7.35;4.40;;;22.70;69.70;;;;;;6118674;28;80644;-58
2022/09/08 01:52:19;;;;;;;7.68;3.58;;;22.70;69.60;;;;;;6106654;28;80800;-60
2022/09/08 01:55:20;;;;;;;7.80;4.10;;;22.70;69.60;;;;;;6109035;28;80390;-59
2022/09/08 01:58:20;;;;;;;7.15;4.15;;;22.70;69.30;;;;;;6115931;28;80653;-58
2022/09/08 02:01:21;;;;;;;9.13;4.50;;;22.70;69.10;;;;;;6124274;28;80338;-59
2022/09/08 02:04:21;;;;;;;11.60;5.20;;;22.70;70.00;;;;;;6121269;28;81684;-59
2022/09/08 02:07:21;;;;;;;6.55;3.75;;;22.70;69.40;;;;;;6110348;28;81714;-59
2022/09/08 02:10:22;;;;;;;7.75;4.20;;;22.70;69.40;;;;;;6122813;28;80486;-59
2022/09/08 02:13:22;;;;;;;7.72;4.30;;;22.70;69.60;;;;;;6122610;28;80385;-59
2022/09/08 02:16:23;;;;;;;6.90;4.13;;;22.70;69.30;;;;;;6120176;28;80824;-59
2022/09/08 02:19:24;;;;;;;9.30;4.18;;;22.70;69.60;;;;;;6117886;28;80696;-59
2022/09/08 02:22:25;;;;;;;7.60;4.28;;;22.70;69.30;;;;;;6120727;28;80198;-58
2022/09/08 02:25:26;;;;;;;6.68;4.10;;;22.70;69.50;;;;;;6118311;28;87442;-57
2022/09/08 02:28:26;;;;;;;14.65;4.30;;;22.70;69.70;;;;;;6126310;28;82309;-58
2022/09/08 02:31:27;;;;;;;7.20;3.85;;;22.70;69.80;;;;;;6141657;28;80662;-58
2022/09/08 02:34:28;;;;;;;8.10;4.45;;;22.70;69.60;;;;;;6139899;28;80304;-58
2022/09/08 02:37:29;;;;;;;8.75;4.28;;;22.70;69.90;;;;;;6135217;28;80963;-66
2022/09/08 02:40:29;;;;;;;8.40;4.07;;;22.70;69.80;;;;;;6153125;28;80414;-66
2022/09/08 02:43:30;;;;;;;9.38;4.32;;;22.70;69.90;;;;;;6123307;28;80421;-66
2022/09/08 02:46:30;;;;;;;7.63;4.10;;;22.70;69.60;;;;;;6137605;28;87192;-66
2022/09/08 02:49:32;;;;;;;7.65;4.38;;;22.70;69.50;;;;;;6137900;28;80549;-66
2022/09/08 02:52:32;;;;;;;12.00;5.45;;;22.70;69.30;;;;;;6137197;28;80396;-67
2022/09/08 02:55:33;;;;;;;7.43;4.10;;;22.70;69.50;;;;;;6140006;28;80196;-66
2022/09/08 02:58:33;;;;;;;7.53;4.25;;;22.70;69.50;;;;;;6135981;28;80414;-66
2022/09/08 03:01:34;;;;;;;16.48;4.50;;;22.70;69.50;;;;;;6141050;28;80874;-66
2022/09/08 03:04:34;;;;;;;10.40;4.63;;;22.70;69.20;;;;;;6141473;28;80620;-65
2022/09/08 03:07:35;;;;;;;8.52;4.53;;;22.70;69.10;;;;;;6142174;28;87114;-66
2022/09/08 03:10:36;;;;;;;7.35;4.30;;;22.70;69.50;;;;;;6148445;28;83429;-67
2022/09/08 03:13:37;;;;;;;7.13;3.75;;;22.60;69.30;;;;;;6150707;28;80106;-67
2022/09/08 03:16:37;;;;;;;8.07;4.38;;;22.60;68.90;;;;;;6129414;28;87086;-59
2022/09/08 03:19:38;;;;;;;9.20;4.88;;;22.60;68.90;;;;;;6142097;28;80806;-60
2022/09/08 03:22:39;;;;;;;8.23;4.57;;;22.70;69.20;;;;;;6145785;28;80585;-57
2022/09/08 03:25:39;;;;;;;7.05;4.30;;;22.70;68.80;;;;;;6147298;28;80382;-59
2022/09/08 03:28:40;;;;;;;10.48;4.43;;;22.70;69.00;;;;;;6133885;28;80166;-60
2022/09/08 03:31:40;;;;;;;8.55;4.57;;;22.70;68.40;;;;;;6137235;28;85051;-58
2022/09/08 03:34:41;;;;;;;11.75;5.40;;;22.70;68.50;;;;;;6140932;28;80386;-59
2022/09/08 03:37:41;;;;;;;8.35;4.93;;;22.70;68.80;;;;;;6117946;28;88113;-59
2022/09/08 03:40:42;;;;;;;8.13;4.28;;;22.70;68.40;;;;;;6113513;28;80287;-59
2022/09/08 03:43:43;;;;;;;8.25;4.32;;;22.60;69.20;;;;;;6142017;28;80585;-58
2022/09/08 03:46:43;;;;;;;9.07;5.20;;;22.70;68.90;;;;;;6122440;28;81071;-60
2022/09/08 03:49:44;;;;;;;10.18;4.15;;;22.70;69.10;;;;;;6107055;28;80580;-59
2022/09/08 03:52:44;;;;;;;10.93;3.90;;;22.60;69.20;;;;;;6109716;28;80132;-59
2022/09/08 03:55:45;;;;;;;9.32;4.50;;;22.70;69.10;;;;;;6131627;28;80651;-59
2022/09/08 03:58:45;;;;;;;15.00;5.00;;;22.70;69.10;;;;;;6131457;28;80473;-58
2022/09/08 04:01:46;;;;;;;9.52;4.88;;;22.70;69.30;;;;;;6143902;28;82226;-57
2022/09/08 04:04:46;;;;;;;11.88;4.20;;;22.70;69.00;;;;;;6144709;28;81004;-59
2022/09/08 04:07:47;;;;;;;9.95;3.95;;;22.70;69.00;;;;;;6144677;28;82945;-59
2022/09/08 04:10:47;;;;;;;7.82;4.22;;;22.70;69.20;;;;;;6140236;28;80064;-59
2022/09/08 04:13:50;;;;;;;9.32;4.50;;;22.70;69.80;;;;;;6143964;28;86889;-58
2022/09/08 04:16:50;;;;;;;8.98;4.22;;;22.70;69.50;;;;;;6132252;28;86135;-58
2022/09/08 04:19:51;;;;;;;11.18;4.35;;;22.70;69.60;;;;;;6117791;28;80735;-58
2022/09/08 04:22:51;;;;;;;11.73;4.65;;;22.70;69.30;;;;;;6120632;28;80329;-58
2022/09/08 04:25:52;;;;;;;8.77;4.15;;;22.70;69.50;;;;;;6132138;28;80966;-58
2022/09/08 04:28:52;;;;;;;7.95;3.80;;;22.70;69.20;;;;;;6136314;28;80500;-58
2022/09/08 04:31:53;;;;;;;8.38;4.63;;;22.70;68.70;;;;;;6135820;28;80485;-58
2022/09/08 04:34:53;;;;;;;6.95;3.78;;;22.70;69.40;;;;;;6146437;28;80806;-60
2022/09/08 04:37:54;;;;;;;9.45;4.65;;;22.70;69.10;;;;;;6140590;28;80233;-58
2022/09/08 04:40:54;;;;;;;15.50;5.22;;;22.70;69.00;;;;;;6152658;28;82000;-61
2022/09/08 04:43:55;;;;;;;8.88;4.35;;;22.70;68.70;;;;;;6153393;28;80399;-62
2022/09/08 04:46:55;;;;;;;8.68;4.22;;;22.70;69.10;;;;;;6153395;28;80414;-64
2022/09/08 04:49:56;;;;;;;10.32;4.30;;;22.70;68.80;;;;;;6153242;28;80682;-58
2022/09/08 04:52:56;;;;;;;9.52;4.45;;;22.70;69.10;;;;;;6148996;28;80408;-59
2022/09/08 04:55:57;;;;;;;11.85;4.15;;;22.70;69.20;;;;;;6142849;28;80608;-59
2022/09/08 04:58:57;;;;;;;10.10;4.55;;;22.80;69.30;;;;;;6167325;28;81501;-58
2022/09/08 05:01:58;;;;;;;9.82;5.38;;;22.80;69.40;;;;;;6131039;28;81474;-58
2022/09/08 05:04:58;;;;;;;10.25;4.57;;;22.80;69.40;;;;;;6141933;28;83316;-60
2022/09/08 05:07:59;;;;;;;11.70;5.28;;;22.80;68.90;;;;;;6153429;28;80893;-57
2022/09/08 05:10:59;;;;;;;12.80;4.85;;;22.80;68.90;;;;;;6146358;28;80566;-59
2022/09/08 05:14:00;;;;;;;7.28;3.97;;;22.90;68.90;;;;;;6149905;28;80496;-57
2022/09/08 05:17:00;;;;;;;17.90;4.57;;;22.90;69.30;;;;;;6148557;28;83225;-58
2022/09/08 05:20:01;;;;;;;10.93;4.50;;;22.90;69.20;;;;;;6145204;28;80463;-58
2022/09/08 05:23:02;;;;;;;6.90;4.18;;;22.90;68.70;;;;;;6152061;28;80487;-57
2022/09/08 05:26:04;;;;;;;9.77;5.03;;;22.80;69.00;;;;;;6146148;28;86263;-59
2022/09/08 05:29:04;;;;;;;10.07;5.28;;;22.80;68.90;;;;;;6139139;28;85487;-57
2022/09/08 05:32:05;;;;;;;9.10;4.53;;;22.80;69.00;;;;;;6140948;28;80740;-59
2022/09/08 05:35:07;;;;;;;12.15;4.78;;;22.80;68.80;;;;;;6129651;28;80374;-59
2022/09/08 05:38:07;;;;;;;12.93;5.28;;;22.80;68.80;;;;;;6151194;28;80222;-57
2022/09/08 05:41:09;;;;;;;11.55;4.55;;;22.80;68.70;;;;;;6149880;28;82708;-65
2022/09/08 05:44:10;;;;;;;10.27;4.63;;;22.80;68.50;;;;;;6147658;28;81653;-63
2022/09/08 05:47:11;;;;;;;8.18;4.70;;;22.80;68.50;;;;;;6147397;28;85923;-60
2022/09/08 05:50:11;;;;;;;9.05;4.38;;;22.80;68.30;;;;;;6113337;28;81508;-57
2022/09/08 05:53:12;;;;;;;13.98;5.18;;;22.90;68.50;;;;;;6131834;28;83935;-58
2022/09/08 05:56:13;;;;;;;15.57;6.05;;;22.90;68.20;;;;;;6147027;28;80393;-58
2022/09/08 05:59:13;;;;;;;9.25;5.07;;;22.90;67.50;;;;;;6136206;28;80223;-59
2022/09/08 06:02:14;;;;;;;10.68;5.65;;;22.90;67.30;;;;;;6142216;28;81076;-59
2022/09/08 06:05:14;;;;;;;13.63;5.47;;;22.90;67.20;;;;;;6140432;28;80293;-59
2022/09/08 06:08:15;;;;;;;13.27;5.80;;;22.90;67.60;;;;;;6137289;28;80483;-58
2022/09/08 06:11:15;;;;;;;14.52;6.10;;;22.90;67.20;;;;;;6148261;28;81215;-60
2022/09/08 06:14:16;;;;;;;12.63;5.60;;;22.90;67.30;;;;;;6145388;28;81164;-60
2022/09/08 06:17:17;;;;;;;16.58;5.88;;;23.00;66.80;;;;;;6142204;28;80718;-58
2022/09/08 06:20:18;;;;;;;10.95;5.47;;;23.00;66.70;;;;;;6128262;28;80133;-58
2022/09/08 06:23:18;;;;;;;11.15;5.30;;;23.00;66.70;;;;;;6114290;28;80473;-58
2022/09/08 06:26:19;;;;;;;10.50;5.68;;;23.00;66.50;;;;;;6118935;28;81327;-60
2022/09/08 06:29:19;;;;;;;10.70;6.25;;;23.00;66.90;;;;;;6119814;28;85454;-60
2022/09/08 06:32:20;;;;;;;10.50;6.53;;;23.00;66.00;;;;;;6106877;28;80809;-60
2022/09/08 06:35:20;;;;;;;13.90;6.20;;;23.10;66.60;;;;;;6116122;28;81755;-59
2022/09/08 06:38:21;;;;;;;22.60;7.03;;;23.10;66.80;;;;;;6131510;28;80290;-59
2022/09/08 06:41:21;;;;;;;11.20;5.80;;;23.10;66.40;;;;;;6129195;28;80335;-59
2022/09/08 06:44:22;;;;;;;13.02;5.85;;;23.10;66.60;;;;;;6114050;28;80457;-59
2022/09/08 06:47:24;;;;;;;12.43;6.25;;;23.10;66.20;;;;;;6113173;28;81471;-59
2022/09/08 06:50:24;;;;;;;14.95;6.82;;;23.10;66.50;;;;;;6132301;28;81148;-60
2022/09/08 06:53:25;;;;;;;13.30;6.43;;;23.20;66.70;;;;;;6101823;28;81186;-59
2022/09/08 06:56:25;;;;;;;12.32;5.43;;;23.10;66.50;;;;;;6112598;28;80614;-66
2022/09/08 06:59:26;;;;;;;12.45;6.57;;;23.20;66.70;;;;;;6107240;28;81758;-61
2022/09/08 07:02:26;;;;;;;15.90;6.78;;;23.20;66.30;;;;;;6101053;28;80020;-69
2022/09/08 07:05:28;;;;;;;14.52;7.00;;;23.20;66.50;;;;;;6111176;28;80586;-67
2022/09/08 07:08:29;;;;;;;16.30;6.95;;;23.20;66.60;;;;;;6117069;28;80482;-67
2022/09/08 07:11:29;;;;;;;18.08;6.05;;;23.20;66.60;;;;;;6123820;28;81577;-69
2022/09/08 07:14:32;;;;;;;14.05;6.65;;;23.20;66.70;;;;;;6115851;28;81126;-66
2022/09/08 07:17:33;;;;;;;13.55;6.10;;;23.30;66.60;;;;;;6102469;28;84052;-68
2022/09/08 07:20:33;;;;;;;10.23;5.55;;;23.30;66.60;;;;;;6119650;28;80239;-66
2022/09/08 07:23:34;;;;;;;12.30;5.95;;;23.30;66.80;;;;;;6110364;28;86525;-68
2022/09/08 07:26:35;;;;;;;11.20;5.93;;;23.30;66.80;;;;;;6115120;28;83153;-67
2022/09/08 07:29:35;;;;;;;8.70;4.95;;;23.40;66.90;;;;;;6116053;28;81901;-66
2022/09/08 07:32:36;;;;;;;13.07;5.72;;;23.30;66.40;;;;;;6130498;28;80426;-65
2022/09/08 07:35:37;;;;;;;9.90;5.78;;;23.40;67.00;;;;;;6125209;28;80414;-67
2022/09/08 07:38:37;;;;;;;10.52;5.82;;;23.50;66.70;;;;;;6131166;28;80249;-67
2022/09/08 07:41:40;;;;;;;10.50;5.63;;;23.50;66.80;;;;;;6125083;28;82491;-64
2022/09/08 07:44:41;;;;;;;11.00;5.60;;;23.40;66.70;;;;;;6096365;28;80415;-66
2022/09/08 07:47:41;;;;;;;12.27;5.88;;;23.50;67.40;;;;;;6105942;28;80420;-67
2022/09/08 07:50:54;;;;;;;12.20;6.05;;;23.50;67.20;;;;;;6117598;28;83684;-58
2022/09/08 07:53:55;;;;;;;13.02;6.63;;;23.50;66.90;;;;;;6111240;28;80769;-59
2022/09/08 07:56:55;;;;;;;10.18;5.72;;;23.50;67.10;;;;;;6094996;28;81153;-61
2022/09/08 07:59:56;;;;;;;13.63;6.72;;;23.50;67.20;;;;;;6097984;28;80715;-59
2022/09/08 08:02:56;;;;;;;10.05;6.18;;;23.60;67.40;;;;;;6102166;28;80717;-60
2022/09/08 08:05:58;;;;;;;12.35;6.45;;;23.60;67.40;;;;;;6102577;28;88185;-60
2022/09/08 08:08:59;;;;;;;12.52;6.05;;;23.60;67.30;;;;;;6099864;28;80586;-60
2022/09/08 08:11:59;;;;;;;12.93;6.03;;;23.60;67.70;;;;;;6107330;28;81590;-60
2022/09/08 08:15:01;;;;;;;11.70;6.00;;;23.60;67.40;;;;;;6099141;28;80364;-60
2022/09/08 08:18:01;;;;;;;12.30;6.72;;;23.70;67.90;;;;;;6106360;28;80398;-58
2022/09/08 08:21:01;;;;;;;15.52;6.80;;;23.70;68.00;;;;;;6102196;28;80756;-58
2022/09/08 08:24:02;;;;;;;10.07;5.88;;;23.70;68.10;;;;;;6102789;28;81004;-59
2022/09/08 08:27:02;;;;;;;17.42;6.53;;;23.70;68.00;;;;;;6106463;28;80590;-59
2022/09/08 08:30:03;;;;;;;11.40;6.10;;;23.70;68.10;;;;;;6100489;28;82661;-59
2022/09/08 08:33:03;;;;;;;13.05;5.93;;;23.80;67.70;;;;;;6105752;28;81473;-57
2022/09/08 08:36:04;;;;;;;11.40;6.05;;;23.80;67.90;;;;;;6108909;28;81094;-58
2022/09/08 08:39:04;;;;;;;12.57;5.18;;;23.90;67.60;;;;;;6108685;28;84462;-58
2022/09/08 08:42:05;;;;;;;8.95;5.43;;;23.90;67.60;;;;;;6124150;28;82071;-63
2022/09/08 08:45:05;;;;;;;8.85;5.10;;;23.90;67.70;;;;;;6116222;28;80532;-54
2022/09/08 08:48:06;;;;;;;9.70;5.70;;;23.90;67.70;;;;;;6122532;28;82138;-51
2022/09/08 08:51:06;;;;;;;9.57;4.95;;;23.90;68.30;;;;;;6127471;28;80799;-57
2022/09/08 08:54:07;;;;;;;11.85;6.00;;;23.90;68.30;;;;;;6121878;28;80557;-53
2022/09/08 08:57:07;;;;;;;9.82;5.70;;;23.90;68.60;;;;;;6124181;28;87009;-55
2022/09/08 09:00:08;;;;;;;10.32;5.40;;;23.90;68.30;;;;;;6107032;28;80936;-54
2022/09/08 09:03:08;;;;;;;12.18;5.60;;;24.00;68.30;;;;;;6126957;28;83530;-59
2022/09/08 09:06:09;;;;;;;10.10;5.93;;;23.90;68.40;;;;;;6135193;28;83052;-60
2022/09/08 09:09:09;;;;;;;8.98;5.65;;;23.90;68.60;;;;;;6104374;28;80443;-59
2022/09/08 09:12:10;;;;;;;15.00;5.50;;;23.90;68.60;;;;;;6104834;28;81174;-58
2022/09/08 09:15:10;;;;;;;9.13;4.93;;;24.00;69.10;;;;;;6113422;28;80619;-59
2022/09/08 09:18:11;;;;;;;9.07;5.78;;;24.00;68.50;;;;;;6107854;28;80539;-58
2022/09/08 09:21:11;;;;;;;13.88;5.53;;;24.00;68.90;;;;;;6115493;28;83465;-59
2022/09/08 09:24:12;;;;;;;13.23;5.13;;;24.00;68.90;;;;;;6115558;28;80892;-69
2022/09/08 09:27:12;;;;;;;10.38;5.55;;;24.10;68.80;;;;;;6120536;28;80130;-69
2022/09/08 09:30:13;;;;;;;14.18;5.70;;;24.10;68.80;;;;;;6134732;28;81770;-68
2022/09/08 09:33:13;;;;;;;11.30;5.43;;;24.10;68.50;;;;;;6121258;28;80577;-69
2022/09/08 09:36:14;;;;;;;9.45;5.47;;;24.10;68.70;;;;;;6130763;28;80349;-69
2022/09/08 09:39:14;;;;;;;6.93;4.88;;;24.10;68.50;;;;;;6129861;28;83239;-69
2022/09/08 09:42:15;;;;;;;11.27;5.88;;;24.20;68.80;;;;;;6129975;28;80128;-70
2022/09/08 09:45:16;;;;;;;10.73;5.28;;;24.10;69.00;;;;;;6128197;28;83410;-69
2022/09/08 09:48:17;;;;;;;7.57;4.80;;;24.20;69.10;;;;;;6128727;28;80107;-68
2022/09/08 09:51:17;;;;;;;11.50;4.65;;;24.20;69.40;;;;;;6117979;28;80097;-67
2022/09/08 09:54:18;;;;;;;9.43;4.57;;;24.20;68.60;;;;;;6122939;28;80657;-68
2022/09/08 09:57:19;;;;;;;6.35;4.45;;;24.30;69.20;;;;;;6119910;28;80806;-70
2022/09/08 10:00:20;;;;;;;6.18;3.95;;;24.30;69.00;;;;;;6107684;28;80399;-70
2022/09/08 10:03:20;;;;;;;11.38;5.20;;;24.30;69.40;;;;;;6117730;28;80681;-69
2022/09/08 10:06:22;;;;;;;9.30;5.05;;;24.30;69.30;;;;;;6131405;28;81620;-70
2022/09/08 10:09:22;;;;;;;6.82;4.65;;;24.30;69.60;;;;;;6126909;28;80444;-71
2022/09/08 10:12:23;;;;;;;6.15;3.90;;;24.30;69.60;;;;;;6133298;28;81300;-68
2022/09/08 10:15:23;;;;;;;6.03;4.07;;;24.30;69.30;;;;;;6123677;28;80401;-70
2022/09/08 10:18:24;;;;;;;8.27;4.80;;;24.40;69.80;;;;;;6120427;28;80863;-61
2022/09/08 10:21:24;;;;;;;8.13;4.70;;;24.40;70.20;;;;;;6129117;28;80421;-59
2022/09/08 10:24:25;;;;;;;6.10;3.92;;;24.40;70.00;;;;;;6128032;28;80609;-60
2022/09/08 10:27:25;;;;;;;6.25;4.10;;;24.40;70.40;;;;;;6124779;28;80537;-59
2022/09/08 10:30:26;;;;;;;8.70;5.55;;;24.40;70.50;;;;;;6116731;28;84897;-59
2022/09/08 10:33:26;;;;;;;9.02;5.70;;;24.40;71.30;;;;;;6123258;28;84066;-60
2022/09/08 10:36:27;;;;;;;12.02;5.97;;;24.40;72.90;;;;;;6120197;28;87062;-59
2022/09/08 10:39:27;;;;;;;12.75;7.13;;;24.40;73.40;;;;;;6120501;28;82486;-60
2022/09/08 10:42:28;;;;;;;14.68;6.43;;;24.40;75.50;;;;;;6120657;28;80659;-61
2022/09/08 10:45:28;;;;;;;14.25;5.72;;;24.40;74.30;;;;;;6119708;28;80550;-60
2022/09/08 10:48:29;;;;;;;10.02;5.85;;;24.50;74.80;;;;;;6122877;28;80604;-67
2022/09/08 10:51:29;;;;;;;10.30;7.00;;;24.60;74.20;;;;;;6122588;28;83982;-59
2022/09/08 10:54:34;;;;;;;7.93;6.18;;;24.50;76.10;;;;;;6122375;28;81547;-56
2022/09/08 10:57:34;;;;;;;9.30;6.13;;;24.50;76.30;;;;;;6126589;28;80997;-58
2022/09/08 11:00:35;;;;;;;13.95;7.03;;;24.50;76.50;;;;;;6127868;28;80064;-58
2022/09/08 11:03:36;;;;;;;21.42;7.53;;;24.50;77.30;;;;;;6123871;28;82522;-57
2022/09/08 11:06:36;;;;;;;26.35;7.05;;;24.60;78.10;;;;;;6127226;28;80762;-57
2022/09/08 11:09:37;;;;;;;13.32;7.47;;;24.60;78.60;;;;;;6115088;28;83857;-57
2022/09/08 11:12:37;;;;;;;13.85;8.05;;;24.60;79.10;;;;;;6125948;28;81230;-71
2022/09/08 11:15:38;;;;;;;10.85;8.05;;;24.60;79.30;;;;;;6123915;28;83236;-71
2022/09/08 11:18:38;;;;;;;11.43;7.53;;;24.60;79.40;;;;;;6128065;28;80695;-72
2022/09/08 11:21:39;;;;;;;14.25;7.93;;;24.70;79.00;;;;;;6141578;28;86026;-73
2022/09/08 11:24:39;;;;;;;12.60;7.43;;;24.70;79.10;;;;;;6143511;28;81100;-64
2022/09/08 11:27:40;;;;;;;13.60;7.13;;;24.70;78.40;;;;;;6136522;28;80311;-70
2022/09/08 11:30:40;;;;;;;10.68;7.03;;;24.70;78.60;;;;;;6143100;28;81203;-60
2022/09/08 11:33:41;;;;;;;12.05;7.43;;;24.70;77.60;;;;;;6126389;28;80383;-61
2022/09/08 11:36:41;;;;;;;10.98;7.10;;;24.80;78.30;;;;;;6125756;28;80644;-61
2022/09/08 11:39:42;;;;;;;10.93;7.20;;;24.80;77.80;;;;;;6122720;28;80311;-60
2022/09/08 11:42:42;;;;;;;11.18;7.30;;;24.90;78.40;;;;;;6126773;28;81360;-61
2022/09/08 11:45:43;;;;;;;11.07;7.60;;;24.90;78.50;;;;;;6147148;28;81359;-60
2022/09/08 11:48:44;;;;;;;11.55;7.80;;;24.90;79.60;;;;;;6151482;28;86916;-69
2022/09/08 11:51:44;;;;;;;11.73;7.75;;;24.90;79.30;;;;;;6145057;28;81023;-69
2022/09/08 11:54:46;;;;;;;10.80;7.15;;;24.80;79.30;;;;;;6143143;28;80790;-69
2022/09/08 11:57:46;;;;;;;13.65;7.43;;;24.80;78.40;;;;;;6144770;28;80456;-67
2022/09/08 12:00:47;;;;;;;8.68;6.38;;;24.70;78.70;;;;;;6144974;28;84305;-64
2022/09/08 12:03:48;;;;;;;8.27;6.70;;;24.90;78.40;;;;;;6148025;28;80973;-67
2022/09/08 12:06:48;;;;;;;8.93;6.57;;;24.90;78.60;;;;;;6134143;28;87224;-59
2022/09/08 12:09:49;;;;;;;9.02;6.80;;;24.90;77.90;;;;;;6147746;28;80265;-59
2022/09/08 12:12:49;;;;;;;12.65;7.90;;;24.90;77.90;;;;;;6144563;28;80812;-59
2022/09/08 12:15:50;;;;;;;11.27;7.30;;;24.90;78.90;;;;;;6144333;28;84820;-59
2022/09/08 12:18:50;;;;;;;9.65;7.35;;;24.90;79.00;;;;;;6148876;28;80688;-58
2022/09/08 12:21:51;;;;;;;10.48;7.20;;;24.80;78.10;;;;;;6139387;28;80566;-59
2022/09/08 12:24:51;;;;;;;18.30;7.97;;;24.80;78.30;;;;;;6125636;28;81124;-58
2022/09/08 12:27:52;;;;;;;13.35;8.00;;;24.80;78.50;;;;;;6103659;28;83306;-59
2022/09/08 12:30:52;;;;;;;11.70;7.75;;;24.80;78.40;;;;;;6116197;28;80412;-58
2022/09/08 12:33:53;;;;;;;11.00;8.43;;;24.70;78.40;;;;;;6117368;28;81728;-59
2022/09/08 12:36:54;;;;;;;15.07;8.60;;;24.70;79.70;;;;;;6080297;28;1139396;-60
2022/09/08 12:39:55;;;;;;;12.95;8.93;;;24.70;80.00;;;;;;6115190;28;81182;-62
2022/09/08 12:42:56;;;;;;;14.75;8.82;;;24.70;79.90;;;;;;6118201;28;81391;-59
2022/09/08 12:45:56;;;;;;;12.90;9.48;;;24.70;80.10;;;;;;6126783;28;80607;-64
2022/09/08 12:48:57;;;;;;;12.70;8.77;;;24.80;80.20;;;;;;6122478;28;80763;-68
2022/09/08 12:51:57;;;;;;;12.88;9.38;;;24.80;80.40;;;;;;6121898;28;80068;-73
2022/09/08 12:54:58;;;;;;;15.75;10.13;;;24.80;80.50;;;;;;6118538;28;85721;-65
2022/09/08 12:58:00;;;;;;;17.33;9.65;;;24.90;81.50;;;;;;6116326;28;83485;-64
2022/09/08 13:01:00;;;;;;;14.77;10.02;;;24.90;82.30;;;;;;6099690;28;82837;-60
2022/09/08 13:04:00;;;;;;;16.60;10.05;;;24.80;83.00;;;;;;6119430;28;83509;-66
2022/09/08 13:07:01;;;;;;;14.25;9.48;;;24.80;83.10;;;;;;6121626;28;83462;-67
2022/09/08 13:10:01;;;;;;;14.43;10.30;;;24.80;84.60;;;;;;6121391;28;83003;-65
2022/09/08 13:13:02;;;;;;;15.05;10.48;;;24.90;83.90;;;;;;6109539;28;83214;-67
2022/09/08 13:16:02;;;;;;;14.10;9.93;;;24.90;84.80;;;;;;6100143;28;83577;-70
2022/09/08 13:19:03;;;;;;;13.05;10.10;;;24.90;86.10;;;;;;6096237;28;83586;-69
2022/09/08 13:22:03;;;;;;;14.70;10.13;;;24.90;85.00;;;;;;6102914;28;84706;-57
2022/09/08 13:25:04;;;;;;;26.00;11.77;;;24.90;84.40;;;;;;6114213;28;86435;-56
2022/09/08 13:28:05;;;;;;;12.70;9.80;;;25.00;83.80;;;;;;6103106;28;85414;-59
2022/09/08 13:31:05;;;;;;;16.02;10.77;;;24.90;85.10;;;;;;6129597;28;85915;-62
2022/09/08 13:34:06;;;;;;;15.07;10.40;;;24.90;85.10;;;;;;6107346;28;87874;-58
2022/09/08 13:37:06;;;;;;;19.58;9.63;;;24.90;84.40;;;;;;6101912;28;85749;-58
2022/09/08 13:40:07;;;;;;;15.90;9.32;;;24.90;84.20;;;;;;6106827;28;87596;-59
2022/09/08 13:43:07;;;;;;;13.50;10.23;;;24.90;84.70;;;;;;6109677;28;81584;-58
2022/09/08 13:46:08;;;;;;;13.35;10.60;;;25.00;84.70;;;;;;6105617;28;85232;-59
2022/09/08 13:49:08;;;;;;;13.98;9.90;;;25.10;84.40;;;;;;6103475;28;84146;-59
2022/09/08 13:52:09;;;;;;;16.65;11.20;;;25.10;84.50;;;;;;6113677;28;83125;-58
2022/09/08 13:55:10;;;;;;;22.02;10.27;;;25.20;83.40;;;;;;6108322;28;88355;-59
2022/09/08 13:58:10;;;;;;;18.10;10.20;;;25.20;85.30;;;;;;6108853;28;83586;-57
2022/09/08 14:01:11;;;;;;;12.75;10.05;;;25.20;84.40;;;;;;6104013;28;84216;-57
2022/09/08 14:04:11;;;;;;;14.45;9.52;;;25.20;83.30;;;;;;6107851;28;83562;-59
2022/09/08 14:07:12;;;;;;;12.48;9.35;;;25.20;85.00;;;;;;6108188;28;83212;-60
2022/09/08 14:10:13;;;;;;;14.15;10.02;;;25.20;82.90;;;;;;6114662;28;84378;-60
2022/09/08 14:13:13;;;;;;;12.85;8.93;;;25.20;85.00;;;;;;6114387;28;83529;-59
2022/09/08 14:16:16;;;;;;;11.98;8.30;;;25.30;83.10;;;;;;6107308;28;84443;-59
2022/09/08 14:19:16;;;;;;;19.67;9.93;;;25.30;83.80;;;;;;6113633;28;81006;-58
2022/09/08 14:22:17;;;;;;;14.18;8.88;;;25.30;84.80;;;;;;6117775;28;84202;-60
2022/09/08 14:25:17;;;;;;;12.60;9.20;;;25.20;84.70;;;;;;6114832;28;80980;-59
2022/09/08 14:28:18;;;;;;;13.30;8.73;;;25.20;84.30;;;;;;6108545;28;82909;-60
2022/09/08 14:31:18;;;;;;;12.45;8.75;;;25.30;83.20;;;;;;6106333;28;82303;-59
2022/09/08 14:34:19;;;;;;;13.00;8.95;;;25.20;82.40;;;;;;6129847;28;85481;-58
2022/09/08 14:37:20;;;;;;;16.23;10.57;;;25.20;82.40;;;;;;6121385;28;80696;-58
2022/09/08 14:40:20;;;;;;;11.27;9.00;;;25.20;81.80;;;;;;6104406;28;85220;-59
2022/09/08 14:43:21;;;;;;;11.77;9.15;;;25.20;81.70;;;;;;6111081;28;83491;-59
2022/09/08 14:46:22;;;;;;;16.98;8.52;;;25.20;81.70;;;;;;6100307;28;81023;-58
2022/09/08 14:49:22;;;;;;;14.60;8.27;;;25.20;81.60;;;;;;6114450;28;80887;-61
2022/09/08 14:52:24;;;;;;;12.70;8.90;;;25.20;81.40;;;;;;6123948;28;80867;-58
2022/09/08 14:55:25;;;;;;;16.10;9.32;;;25.20;81.40;;;;;;6117350;28;80303;-58
2022/09/08 14:58:25;;;;;;;14.23;8.43;;;25.20;81.30;;;;;;6114957;28;81155;-57
2022/09/08 15:01:27;;;;;;;12.32;8.85;;;25.20;80.70;;;;;;6108377;28;85526;-58
2022/09/08 15:04:28;;;;;;;13.85;8.35;;;25.10;81.00;;;;;;6107996;28;80681;-58
2022/09/08 15:07:28;;;;;;;13.77;8.70;;;25.10;81.00;;;;;;6109234;28;80338;-57
2022/09/08 15:10:29;;;;;;;11.95;8.65;;;25.10;81.10;;;;;;6110827;28;80540;-57
2022/09/08 15:13:29;;;;;;;12.73;7.20;;;25.10;81.80;;;;;;6108471;28;81031;-59
2022/09/08 15:16:30;;;;;;;12.05;7.88;;;25.10;81.10;;;;;;6127176;28;81050;-54
2022/09/08 15:19:30;;;;;;;11.57;7.93;;;25.10;80.80;;;;;;6114980;28;80719;-56
2022/09/08 15:22:31;;;;;;;11.02;8.23;;;25.00;81.40;;;;;;6126597;28;81180;-57
2022/09/08 15:25:31;;;;;;;13.13;9.63;;;25.00;81.00;;;;;;6108889;28;80835;-56
2022/09/08 15:28:32;;;;;;;14.02;8.55;;;25.00;80.90;;;;;;6113276;28;80933;-55
2022/09/08 15:31:32;;;;;;;15.00;8.98;;;24.90;81.40;;;;;;6113661;28;83070;-59
2022/09/08 15:34:33;;;;;;;14.07;8.60;;;24.90;81.60;;;;;;6130279;28;80858;-59
2022/09/08 15:37:35;;;;;;;13.25;8.40;;;24.90;81.30;;;;;;6127645;28;80948;-56